Time;durP1;ratioP1;P1;durP2;ratioP2;P2;SDS_P1;SDS_P2;PMS_P1;PMS_P2;Temp;Humidity;BMP_temperature;BMP_pressure;BME280_temperature;BME280_humidity;BME280_pressure;Samples;Min_cycle;Max_cycle;Signal;HPM_P1;HPM_P2
2022/08/25 00:01:22;;;;;;;;;;;;;;;;;;5042769;28;20052;-53
2022/08/25 00:03:48;;;;;;;;;;;;;;;;;;5044605;28;20015;-55
2022/08/25 00:06:14;;;;;;;;;;;;;;;;;;5044324;28;19925;-52
2022/08/25 00:08:40;;;;;;;;;;;;;;;;;;5043899;28;19948;-52
2022/08/25 00:11:06;;;;;;;;;;;;;;;;;;5044259;28;20385;-51
2022/08/25 00:13:32;;;;;;;;;;;;;;;;;;5044310;28;19994;-56
2022/08/25 00:15:58;;;;;;;;;;;;;;;;;;5044347;28;19924;-60
2022/08/25 00:18:23;;;;;;;;;;;;;;;;;;5045319;28;19921;-55
2022/08/25 00:20:49;;;;;;;;;;;;;;;;;;5044230;28;19920;-52
2022/08/25 00:23:16;;;;;;;;;;;;;;;;;;5045856;28;20324;-55
2022/08/25 00:25:42;;;;;;;;;;;;;;;;;;5049016;28;19978;-51
2022/08/25 00:28:09;;;;;;;;;;;;;;;;;;5046795;28;19921;-53
2022/08/25 00:30:35;;;;;;;;;;;;;;;;;;5048817;28;19924;-54
2022/08/25 00:33:02;;;;;;;;;;;;;;;;;;5045577;28;19925;-51
2022/08/25 00:35:28;;;;;;;;;;;;;;;;;;5048333;28;19925;-60
2022/08/25 00:37:54;;;;;;;1.10;1.00;;;;;;;;;;5044879;28;20047;-55
2022/08/25 00:40:20;;;;;;;;;;;;;;;;;;5048545;28;19935;-54
2022/08/25 00:42:46;;;;;;;;;;;;;;;;;;5047521;28;19925;-58
2022/08/25 00:45:12;;;;;;;;;;;;;;;;;;5048199;28;19934;-52
2022/08/25 00:47:39;;;;;;;;;;;;;;;;;;5048712;28;19925;-57
2022/08/25 00:50:05;;;;;;;;;;;;;;;;;;5047255;28;19931;-54
2022/08/25 00:52:31;;;;;;;;;;;;;;;;;;5048537;28;20327;-51
2022/08/25 00:54:57;;;;;;;;;;;;;;;;;;5044375;28;19928;-53
2022/08/25 00:57:26;;;;;;;0.88;0.88;;;;;;;;;;5036908;28;20269;-51
2022/08/25 00:59:52;;;;;;;;;;;;;;;;;;5035676;28;20050;-55
2022/08/25 01:02:18;;;;;;;;;;;;;;;;;;5038169;28;20542;-53
2022/08/25 01:04:44;;;;;;;;;;;;;;;;;;5038029;28;19971;-55
2022/08/25 01:07:10;;;;;;;;;;;;;;;;;;5041719;28;20587;-53
2022/08/25 01:09:36;;;;;;;;;;;;;;;;;;5039197;28;20019;-52
2022/08/25 01:12:02;;;;;;;;;;;;;;;;;;5039678;28;19928;-51
2022/08/25 01:14:30;;;;;;;;;;;;;;;;;;5041812;28;20335;-59
2022/08/25 01:16:57;;;;;;;;;;;;;;;;;;5037428;28;19925;-53
2022/08/25 01:19:23;;;;;;;;;;;;;;;;;;5041471;28;20397;-52
2022/08/25 01:21:49;;;;;;;;;;;;;;;;;;5036011;28;19979;-51
2022/08/25 01:24:15;;;;;;;;;;;;;;;;;;5033216;28;19929;-51
2022/08/25 01:26:41;;;;;;;;;;;;;;;;;;5019137;28;20305;-55
2022/08/25 01:29:24;;;;;;;;;;;;;;;;;;5039637;28;20698;-49
2022/08/25 01:31:51;;;;;;;1.63;1.25;;;;;;;;;;5015013;28;19924;-55
2022/08/25 01:34:18;;;;;;;1.30;1.20;;;;;;;;;;5034194;28;20153;-52
2022/08/25 01:36:44;;;;;;;1.48;0.70;;;;;;;;;;5039891;28;20105;-51
2022/08/25 01:39:11;;;;;;;1.10;1.00;;;;;;;;;;5031599;28;20168;-55
2022/08/25 01:41:46;;;;;;;0.75;0.73;;;;;;;;;;5038205;28;20037;-52
2022/08/25 01:44:12;;;;;;;1.30;1.20;;;;;;;;;;5039869;28;20060;-52
2022/08/25 01:46:38;;;;;;;1.77;1.10;;;;;;;;;;5038013;28;20048;-54
2022/08/25 01:49:04;;;;;;;0.93;0.80;;;;;;;;;;5039300;28;20048;-53
2022/08/25 01:51:34;;;;;;;1.58;1.10;;;;;;;;;;5034674;28;20410;-54
2022/08/25 01:54:00;;;;;;;0.90;0.90;;;;;;;;;;5030857;28;20102;-56
2022/08/25 01:56:27;;;;;;;0.85;0.80;;;;;;;;;;5038569;28;20431;-52
2022/08/25 01:58:53;;;;;;;0.80;0.80;;;;;;;;;;5038519;28;20059;-53
2022/08/25 02:01:22;;;;;;;0.80;0.80;;;;;;;;;;5035158;28;20038;-54
2022/08/25 02:03:49;;;;;;;0.82;0.77;;;;;;;;;;5040647;28;20136;-52
2022/08/25 02:06:17;;;;;;;1.02;0.82;;;;;;;;;;5035469;28;20528;-54
2022/08/25 02:08:43;;;;;;;0.70;0.70;;;;;;;;;;5036314;28;20076;-52
2022/08/25 02:11:13;;;;;;;1.15;0.80;;;;;;;;;;5036099;28;20694;-55
2022/08/25 02:13:40;;;;;;;0.65;0.65;;;;;;;;;;5033330;28;20133;-54
2022/08/25 02:16:06;;;;;;;0.98;0.90;;;;;;;;;;5034847;28;20485;-53
2022/08/25 02:18:32;;;;;;;0.40;0.40;;;;;;;;;;5036871;28;20055;-52
2022/08/25 02:20:58;;;;;;;0.70;0.70;;;;;;;;;;5018042;28;20148;-54
2022/08/25 02:23:25;;;;;;;0.82;0.82;;;;;;;;;;5036497;28;20121;-52
2022/08/25 02:25:51;;;;;;;0.70;0.70;;;;;;;;;;5038889;28;20049;-53
2022/08/25 02:28:17;;;;;;;0.60;0.60;;;;;;;;;;5016051;28;20087;-56
2022/08/25 02:30:44;;;;;;;0.82;0.73;;;;;;;;;;5039030;28;20457;-51
2022/08/25 02:33:10;;;;;;;0.77;0.77;;;;;;;;;;5035512;28;20053;-50
2022/08/25 02:35:37;;;;;;;0.57;0.57;;;;;;;;;;5036680;28;20131;-50
2022/08/25 02:38:03;;;;;;;0.50;0.50;;;;;;;;;;5031894;28;20049;-52
2022/08/25 02:40:29;;;;;;;0.63;0.63;;;;;;;;;;5039066;28;20037;-56
2022/08/25 02:42:56;;;;;;;1.05;0.60;;;;;;;;;;5034416;28;20075;-53
2022/08/25 02:45:22;;;;;;;0.50;0.50;;;;;;;;;;5037055;28;20045;-52
2022/08/25 02:47:48;;;;;;;0.77;0.77;;;;;;;;;;5035083;28;20104;-56
2022/08/25 02:50:14;;;;;;;0.60;0.60;;;;;;;;;;5035606;28;20041;-53
2022/08/25 02:52:40;;;;;;;0.82;0.60;;;;;;;;;;5039204;28;20057;-54
2022/08/25 02:55:08;;;;;;;0.57;0.57;;;;;;;;;;5038762;28;20061;-54
2022/08/25 02:57:34;;;;;;;0.82;0.82;;;;;;;;;;5045695;28;20045;-49
2022/08/25 03:00:01;;;;;;;0.68;0.68;;;;;;;;;;5044887;28;20136;-53
2022/08/25 03:02:27;;;;;;;0.70;0.70;;;;;;;;;;5045020;28;20062;-52
2022/08/25 03:04:53;;;;;;;0.57;0.57;;;;;;;;;;5041523;28;20049;-54
2022/08/25 03:07:20;;;;;;;0.93;0.85;;;;;;;;;;5044964;28;20037;-50
2022/08/25 03:09:46;;;;;;;0.95;0.75;;;;;;;;;;5026508;28;20049;-55
2022/08/25 03:12:13;;;;;;;1.90;0.80;;;;;;;;;;5044875;28;20517;-53
2022/08/25 03:14:40;;;;;;;0.80;0.80;;;;;;;;;;5045190;28;20053;-52
2022/08/25 03:17:07;;;;;;;0.80;0.75;;;;;;;;;;5043859;28;20037;-54
2022/08/25 03:19:33;;;;;;;1.33;0.90;;;;;;;;;;5045296;28;20047;-51
2022/08/25 03:21:59;;;;;;;0.70;0.70;;;;;;;;;;5044913;28;20048;-54
2022/08/25 03:24:26;;;;;;;1.13;1.02;;;;;;;;;;5044508;28;20045;-52
2022/08/25 03:26:52;;;;;;;1.25;1.15;;;;;;;;;;5044863;28;20133;-55
2022/08/25 03:29:18;;;;;;;1.30;0.98;;;;;;;;;;5044745;28;20123;-55
2022/08/25 03:31:45;;;;;;;1.65;1.30;;;;;;;;;;5044421;28;20417;-52
2022/08/25 03:34:15;;;;;;;1.05;0.95;;;;;;;;;;5044522;28;20072;-55
2022/08/25 03:36:42;;;;;;;1.35;1.00;;;;;;;;;;5043016;28;20044;-52
2022/08/25 03:39:08;;;;;;;1.33;1.20;;;;;;;;;;5043728;28;20117;-54
2022/08/25 03:41:35;;;;;;;1.27;1.17;;;;;;;;;;5045151;28;20049;-51
2022/08/25 03:44:02;;;;;;;0.80;0.80;;;;;;;;;;5043751;28;20044;-52
2022/08/25 03:46:29;;;;;;;0.90;0.90;;;;;;;;;;5043249;28;20083;-56
2022/08/25 03:48:55;;;;;;;1.38;0.77;;;;;;;;;;5045324;28;20048;-54
2022/08/25 03:51:23;;;;;;;0.73;0.70;;;;;;;;;;5026187;28;20044;-50
2022/08/25 03:53:49;;;;;;;0.55;0.55;;;;;;;;;;5044664;28;20170;-49
2022/08/25 03:56:15;;;;;;;0.77;0.77;;;;;;;;;;5037903;28;20284;-51
2022/08/25 03:58:41;;;;;;;0.52;0.52;;;;;;;;;;5035653;28;20142;-50
2022/08/25 04:01:08;;;;;;;0.60;0.60;;;;;;;;;;5021468;28;20057;-54
2022/08/25 04:03:34;;;;;;;0.80;0.80;;;;;;;;;;5036607;28;20052;-52
2022/08/25 04:06:01;;;;;;;1.20;1.10;;;;;;;;;;5032872;28;20037;-49
2022/08/25 04:08:27;;;;;;;1.10;1.00;;;;;;;;;;5038416;28;20056;-50
2022/08/25 04:10:54;;;;;;;0.80;0.80;;;;;;;;;;5033398;28;20041;-54
2022/08/25 04:13:20;;;;;;;0.90;0.90;;;;;;;;;;5033595;28;20457;-55
2022/08/25 04:15:46;;;;;;;1.10;1.00;;;;;;;;;;5035267;28;20045;-56
2022/08/25 04:18:12;;;;;;;0.70;0.70;;;;;;;;;;5038432;28;20060;-55
2022/08/25 04:20:38;;;;;;;1.08;0.98;;;;;;;;;;5019423;28;20566;-52
2022/08/25 04:23:04;;;;;;;0.90;0.90;;;;;;;;;;5041602;28;20594;-53
2022/08/25 04:25:30;;;;;;;1.05;0.77;;;;;;;;;;5032971;28;20085;-53
2022/08/25 04:27:57;;;;;;;1.50;1.13;;;;;;;;;;5033455;28;20391;-57
2022/08/25 04:30:23;;;;;;;1.35;1.25;;;;;;;;;;5038147;28;20046;-53
2022/08/25 04:32:49;;;;;;;1.70;1.55;;;;;;;;;;5036013;28;20501;-53
2022/08/25 04:35:15;;;;;;;0.82;0.82;;;;;;;;;;5036692;28;20371;-53
2022/08/25 04:37:42;;;;;;;1.42;1.25;;;;;;;;;;5035535;28;20116;-53
2022/08/25 04:40:08;;;;;;;1.02;0.90;;;;;;;;;;5038311;28;20053;-51
2022/08/25 04:42:34;;;;;;;1.00;1.00;;;;;;;;;;5035025;28;20049;-51
2022/08/25 04:45:02;;;;;;;1.92;1.00;;;;;;;;;;5037461;28;20052;-55
2022/08/25 04:47:28;;;;;;;1.15;0.93;;;;;;;;;;5035990;28;20128;-55
2022/08/25 04:49:54;;;;;;;1.60;0.95;;;;;;;;;;5034898;28;20045;-50
2022/08/25 04:52:20;;;;;;;1.15;1.05;;;;;;;;;;5037825;28;20107;-55
2022/08/25 04:54:47;;;;;;;2.38;0.93;;;;;;;;;;5037907;28;20088;-52
2022/08/25 04:57:13;;;;;;;0.90;0.90;;;;;;;;;;5038733;28;20424;-55
2022/08/25 04:59:39;;;;;;;1.42;1.13;;;;;;;;;;5037528;28;20041;-53
2022/08/25 05:02:05;;;;;;;1.02;0.93;;;;;;;;;;5038148;28;20520;-54
2022/08/25 05:04:32;;;;;;;1.02;0.95;;;;;;;;;;5038603;28;20081;-53
2022/08/25 05:06:59;;;;;;;2.45;1.00;;;;;;;;;;5038893;28;20108;-56
2022/08/25 05:09:25;;;;;;;2.22;1.45;;;;;;;;;;5034220;28;20128;-52
2022/08/25 05:11:51;;;;;;;1.20;1.05;;;;;;;;;;5035013;28;20132;-53
2022/08/25 05:14:20;;;;;;;1.55;1.45;;;;;;;;;;5036939;28;20060;-50
2022/08/25 05:16:46;;;;;;;1.55;1.40;;;;;;;;;;5040182;28;20442;-55
2022/08/25 05:19:12;;;;;;;0.82;0.80;;;;;;;;;;5037505;28;20538;-55
2022/08/25 05:21:39;;;;;;;1.35;1.00;;;;;;;;;;5033385;28;20041;-52
2022/08/25 05:24:05;;;;;;;1.60;1.50;;;;;;;;;;5035042;28;20141;-54
2022/08/25 05:26:32;;;;;;;2.45;1.30;;;;;;;;;;5034653;28;20048;-56
2022/08/25 05:28:59;;;;;;;1.15;1.05;;;;;;;;;;5040543;28;20129;-60
2022/08/25 05:31:26;;;;;;;1.75;1.33;;;;;;;;;;5038903;28;20044;-55
2022/08/25 05:33:52;;;;;;;3.95;1.70;;;;;;;;;;5033732;28;20053;-50
2022/08/25 05:36:19;;;;;;;2.42;1.73;;;;;;;;;;5040251;28;20119;-54
2022/08/25 05:38:45;;;;;;;2.30;1.40;;;;;;;;;;5037358;28;20163;-60
2022/08/25 05:41:14;;;;;;;1.67;1.58;;;;;;;;;;5016870;28;20046;-53
2022/08/25 05:43:41;;;;;;;3.05;2.05;;;;;;;;;;5036644;28;20103;-56
2022/08/25 05:46:07;;;;;;;4.25;2.58;;;;;;;;;;5027707;28;20037;-50
2022/08/25 05:48:33;;;;;;;2.78;2.58;;;;;;;;;;5031015;28;20075;-51
2022/08/25 05:51:00;;;;;;;2.42;1.92;;;;;;;;;;5035230;28;20103;-53
2022/08/25 05:53:28;;;;;;;3.35;2.40;;;;;;;;;;5035386;28;20037;-53
2022/08/25 05:55:55;;;;;;;2.75;2.03;;;;;;;;;;5045280;28;20444;-56
2022/08/25 05:58:22;;;;;;;2.35;1.70;;;;;;;;;;5045082;28;20044;-53
2022/08/25 06:00:48;;;;;;;2.45;2.15;;;;;;;;;;5046511;28;20049;-49
2022/08/25 06:03:14;;;;;;;2.00;1.80;;;;;;;;;;5046229;28;20049;-53
2022/08/25 06:05:40;;;;;;;1.88;1.70;;;;;;;;;;5045893;28;20060;-54
2022/08/25 06:08:07;;;;;;;3.55;2.45;;;;;;;;;;5045838;28;20052;-54
2022/08/25 06:10:33;;;;;;;2.13;2.00;;;;;;;;;;5045988;28;20045;-55
2022/08/25 06:13:00;;;;;;;2.30;1.77;;;;;;;;;;5046310;28;20049;-56
2022/08/25 06:15:26;;;;;;;1.95;1.80;;;;;;;;;;5046791;28;20049;-54
2022/08/25 06:17:52;;;;;;;2.08;1.63;;;;;;;;;;5046305;28;20053;-54
2022/08/25 06:20:20;;;;;;;1.70;1.60;;;;;;;;;;5045422;28;20080;-56
2022/08/25 06:22:47;;;;;;;2.80;1.85;;;;;;;;;;5028378;28;20455;-56
2022/08/25 06:25:18;;;;;;;1.73;1.60;;;;;;;;;;5046192;28;20041;-56
2022/08/25 06:27:44;;;;;;;2.03;1.93;;;;;;;;;;5043092;28;20099;-54
2022/08/25 06:30:13;;;;;;;2.92;1.75;;;;;;;;;;5045699;28;20491;-53
2022/08/25 06:32:40;;;;;;;2.63;2.42;;;;;;;;;;5044548;28;20520;-52
2022/08/25 06:35:08;;;;;;;3.35;2.72;;;;;;;;;;5044562;28;20505;-55
2022/08/25 06:37:33;;;;;;;;;;;;;;;;;;5046643;28;19947;-51
2022/08/25 06:39:59;;;;;;;;;;;;;;;;;;5045447;28;20809;-53
2022/08/25 06:42:25;;;;;;;;;;;;;;;;;;5046496;28;19925;-54
2022/08/25 06:44:51;;;;;;;;;;;;;;;;;;5046170;28;19921;-53
2022/08/25 06:47:17;;;;;;;;;;;;;;;;;;5032719;28;20381;-55
2022/08/25 06:49:43;;;;;;;;;;;;;;;;;;5035122;28;19925;-51
2022/08/25 06:52:09;;;;;;;2.80;2.10;;;;;;;;;;5042984;28;19925;-54
2022/08/25 06:54:36;;;;;;;2.20;2.00;;;;;;;;;;5045170;28;20140;-54
2022/08/25 06:57:02;;;;;;;2.83;2.63;;;;;;;;;;5045703;28;20048;-52
2022/08/25 06:59:28;;;;;;;4.35;3.33;;;;;;;;;;5045281;28;20041;-59
2022/08/25 07:01:54;;;;;;;3.10;2.80;;;;;;;;;;5045112;28;20045;-53
2022/08/25 07:04:20;;;;;;;2.80;2.10;;;;;;;;;;5045419;28;20809;-54
2022/08/25 07:06:47;;;;;;;2.88;2.63;;;;;;;;;;5038799;28;20097;-53
2022/08/25 07:09:13;;;;;;;3.42;2.28;;;;;;;;;;5044428;28;20045;-53
2022/08/25 07:11:40;;;;;;;2.22;2.05;;;;;;;;;;5041372;28;20033;-58
2022/08/25 07:14:07;;;;;;;2.78;2.17;;;;;;;;;;5043703;28;20113;-55
2022/08/25 07:16:33;;;;;;;4.45;2.53;;;;;;;;;;5044651;28;20533;-53
2022/08/25 07:19:00;;;;;;;5.50;3.20;;;;;;;;;;5044778;28;20055;-53
2022/08/25 07:21:26;;;;;;;3.00;2.72;;;;;;;;;;5046911;28;20041;-54
2022/08/25 07:23:53;;;;;;;3.95;3.50;;;;;;;;;;5045271;28;20128;-55
2022/08/25 07:26:18;;;;;;;;;;;;;;;;;;5046022;28;19932;-52
2022/08/25 07:28:44;;;;;;;;;;;;;;;;;;5046546;28;19928;-53
2022/08/25 07:31:10;;;;;;;;;;;;;;;;;;5042674;28;19929;-55
2022/08/25 07:33:36;;;;;;;;;;;;;;;;;;5043592;28;20380;-56
2022/08/25 07:36:02;;;;;;;2.17;1.98;;;;;;;;;;5042568;28;19924;-54
2022/08/25 07:38:29;;;;;;;2.92;2.38;;;;;;;;;;5044797;28;20033;-60
2022/08/25 07:41:04;;;;;;;2.80;2.47;;;;;;;;;;5033850;28;20053;-54
2022/08/25 07:43:30;;;;;;;4.35;2.35;;;;;;;;;;5043796;28;20051;-55
2022/08/25 07:45:56;;;;;;;2.42;2.22;;;;;;;;;;5043900;28;20049;-53
2022/08/25 07:48:22;;;;;;;2.22;2.03;;;;;;;;;;5044927;28;20037;-52
2022/08/25 07:50:49;;;;;;;2.17;1.50;;;;;;;;;;5026500;28;20049;-54
2022/08/25 07:53:16;;;;;;;1.98;1.88;;;;;;;;;;5044555;28;20045;-53
2022/08/25 07:55:42;;;;;;;3.17;2.67;;;;;;;;;;5045779;28;20060;-54
2022/08/25 07:58:09;;;;;;;2.08;1.88;;;;;;;;;;5030224;28;20056;-53
2022/08/25 08:00:36;;;;;;;4.85;3.20;;;;;;;;;;5009641;28;20038;-57
2022/08/25 08:03:07;;;;;;;3.08;2.78;;;;;;;;;;5004179;28;20042;-57
2022/08/25 08:05:33;;;;;;;3.38;3.05;;;;;;;;;;5005492;28;20091;-56
2022/08/25 08:07:59;;;;;;;3.92;2.80;;;;;;;;;;5005741;28;20046;-56
2022/08/25 08:10:26;;;;;;;3.20;2.88;;;;;;;;;;5006166;28;20700;-55
2022/08/25 08:12:52;;;;;;;2.78;2.58;;;;;;;;;;5004922;28;20053;-55
2022/08/25 08:15:19;;;;;;;3.30;3.00;;;;;;;;;;5006440;28;20430;-53
2022/08/25 08:17:45;;;;;;;4.20;3.00;;;;;;;;;;5005839;28;20049;-63
2022/08/25 08:20:12;;;;;;;3.85;2.90;;;;;;;;;;5005552;28;20125;-59
2022/08/25 08:22:40;;;;;;;2.90;2.70;;;;;;;;;;5023825;28;20124;-55
2022/08/25 08:25:07;;;;;;;3.40;3.00;;;;;;;;;;5013022;28;20050;-58
2022/08/25 08:27:33;;;;;;;2.80;2.55;;;;;;;;;;5020402;28;20056;-53
2022/08/25 08:29:59;;;;;;;4.80;3.83;;;;;;;;;;5024240;28;20107;-58
2022/08/25 08:32:25;;;;;;;4.63;3.10;;;;;;;;;;5021768;28;20082;-57
2022/08/25 08:34:51;;;;;;;3.75;3.30;;;;;;;;;;5012673;28;20054;-54
2022/08/25 08:37:18;;;;;;;4.22;3.20;;;;;;;;;;5014247;28;20713;-56
2022/08/25 08:39:44;;;;;;;3.80;2.50;;;;;;;;;;5012099;28;20132;-56
2022/08/25 08:42:22;;;;;;;3.35;2.45;;;;;;;;;;5018056;28;20049;-54
2022/08/25 08:44:59;;;;;;;2.60;2.40;;;;;;;;;;5007920;28;20056;-58
2022/08/25 08:47:30;;;;;;;2.35;2.20;;;;;;;;;;5017259;28;20057;-57
2022/08/25 08:50:22;;;;;;;1.75;1.65;;;;;;;;;;5021268;28;20051;-55
2022/08/25 08:53:00;;;;;;;1.73;1.63;;;;;;;;;;4991214;28;20370;-54
2022/08/25 08:55:35;;;;;;;3.00;2.05;;;;;;;;;;5038309;28;20096;-58
2022/08/25 08:58:04;;;;;;;1.80;1.70;;;;;;;;;;5048528;28;20088;-57
2022/08/25 09:00:32;;;;;;;2.40;2.20;;;;;;;;;;5048314;28;20053;-55
2022/08/25 09:03:09;;;;;;;2.20;1.70;;;;;;;;;;5047313;28;20110;-62
2022/08/25 09:05:47;;;;;;;1.67;1.58;;;;;;;;;;5043229;28;20515;-57
2022/08/25 09:08:13;;;;;;;2.88;1.70;;;;;;;;;;5047995;28;20048;-58
2022/08/25 09:10:58;;;;;;;1.92;1.83;;;;;;;;;;5047827;28;20091;-55
2022/08/25 09:13:28;;;;;;;2.47;2.22;;;;;;;;;;5047710;28;20052;-57
2022/08/25 09:18:48;;;;;;;2.20;2.00;;;;;;;;;;5047642;28;20136;-56
2022/08/25 09:21:14;;;;;;;1.85;1.75;;;;;;;;;;5048403;28;20052;-54
2022/08/25 09:23:53;;;;;;;2.40;1.95;;;;;;;;;;5044745;28;20497;-53
2022/08/25 09:26:29;;;;;;;2.03;1.92;;;;;;;;;;5040271;28;20053;-52
2022/08/25 09:29:04;;;;;;;2.35;2.15;;;;;;;;;;5048234;28;20079;-54
2022/08/25 09:31:32;;;;;;;2.92;2.08;;;;;;;;;;5042477;28;20048;-53
2022/08/25 09:34:00;;;;;;;2.58;2.38;;;;;;;;;;5039705;28;20513;-60
2022/08/25 09:36:27;;;;;;;2.78;2.25;;;;;;;;;;5040028;28;20127;-56
2022/08/25 09:38:53;;;;;;;3.65;2.50;;;;;;;;;;5048688;28;20045;-53
2022/08/25 09:41:34;;;;;;;2.20;2.00;;;;;;;;;;5039629;28;20094;-55
2022/08/25 09:44:00;;;;;;;3.22;2.17;;;;;;;;;;5026831;28;20045;-56
2022/08/25 09:46:28;;;;;;;2.33;2.13;;;;;;;;;;5028116;28;20054;-54
2022/08/25 09:48:55;;;;;;;2.67;2.38;;;;;;;;;;5038277;28;20049;-53
2022/08/25 09:51:24;;;;;;;2.17;1.70;;;;;;;;;;5028181;28;20060;-53
2022/08/25 09:53:55;;;;;;;2.22;1.63;;;;;;;;;;5027505;28;20056;-53
2022/08/25 09:56:22;;;;;;;2.23;1.70;;;;;;;;;;5027086;28;20062;-55
2022/08/25 09:58:48;;;;;;;1.88;1.77;;;;;;;;;;5026764;28;20180;-56
2022/08/25 10:01:18;;;;;;;2.95;1.90;;;;;;;;;;5027464;28;20136;-53
2022/08/25 10:03:54;;;;;;;3.78;1.77;;;;;;;;;;5026759;28;20049;-54
2022/08/25 10:06:20;;;;;;;2.78;2.20;;;;;;;;;;5026938;28;20037;-52
2022/08/25 10:08:47;;;;;;;2.08;1.88;;;;;;;;;;5026966;28;20048;-58
2022/08/25 10:11:14;;;;;;;1.98;1.80;;;;;;;;;;5026513;28;20128;-53
2022/08/25 10:13:50;;;;;;;1.80;1.70;;;;;;;;;;5027477;28;20053;-54
2022/08/25 10:16:24;;;;;;;2.33;1.90;;;;;;;;;;5027720;28;20084;-53
2022/08/25 10:19:01;;;;;;;3.92;1.58;;;;;;;;;;5026591;28;20046;-54
2022/08/25 10:21:27;;;;;;;4.13;1.83;;;;;;;;;;5027943;28;20041;-52
2022/08/25 10:23:55;;;;;;;1.88;1.63;;;;;;;;;;5027830;28;20077;-53
2022/08/25 10:26:36;;;;;;;1.65;1.55;;;;;;;;;;5026566;28;20074;-55
2022/08/25 10:29:10;;;;;;;2.15;1.95;;;;;;;;;;5026992;28;20468;-56
2022/08/25 10:31:40;;;;;;;1.90;1.80;;;;;;;;;;5027452;28;20083;-55
2022/08/25 10:34:11;;;;;;;2.08;1.70;;;;;;;;;;5026275;28;20067;-55
2022/08/25 10:37:04;;;;;;;3.20;2.03;;;;;;;;;;5027191;28;20042;-53
2022/08/25 10:39:41;;;;;;;2.90;2.00;;;;;;;;;;4996430;28;20057;-54
2022/08/25 10:42:28;;;;;;;5.00;2.08;;;;;;;;;;5026835;28;20049;-58
2022/08/25 10:48:05;;;;;;;1.58;1.45;;;;;;;;;;5026585;28;20038;-53
2022/08/25 10:50:31;;;;;;;2.55;1.75;;;;;;;;;;5009307;28;20115;-53
2022/08/25 10:53:16;;;;;;;3.95;1.80;;;;;;;;;;5026512;28;20049;-55
2022/08/25 10:55:48;;;;;;;2.22;2.03;;;;;;;;;;5026791;28;20053;-53
2022/08/25 10:58:23;;;;;;;2.38;2.00;;;;;;;;;;5026812;28;20049;-54
2022/08/25 11:00:58;;;;;;;1.70;1.60;;;;;;;;;;5025848;28;20045;-56
2022/08/25 11:03:43;;;;;;;1.80;1.70;;;;;;;;;;5027201;28;20513;-51
2022/08/25 11:06:14;;;;;;;1.75;1.20;;;;;;;;;;5026562;28;20045;-53
2022/08/25 11:08:44;;;;;;;2.05;1.85;;;;;;;;;;5025244;28;20049;-50
2022/08/25 11:11:13;;;;;;;3.00;1.40;;;;;;;;;;5026414;28;20057;-53
2022/08/25 11:13:42;;;;;;;1.73;1.50;;;;;;;;;;5026516;28;20048;-56
2022/08/25 11:16:16;;;;;;;2.25;1.75;;;;;;;;;;5025417;28;20521;-52
2022/08/25 11:18:55;;;;;;;1.90;1.80;;;;;;;;;;5026392;28;20053;-51
2022/08/25 11:21:24;;;;;;;1.83;1.58;;;;;;;;;;5025952;28;20833;-52
2022/08/25 11:23:55;;;;;;;2.30;1.58;;;;;;;;;;5026148;28;20041;-55
2022/08/25 11:26:28;;;;;;;2.13;1.63;;;;;;;;;;5026331;28;20042;-54
2022/08/25 11:28:59;;;;;;;1.80;1.70;;;;;;;;;;5025846;28;20371;-54
2022/08/25 11:31:26;;;;;;;1.83;1.73;;;;;;;;;;5026998;28;20037;-56
2022/08/25 11:33:53;;;;;;;1.70;1.60;;;;;;;;;;5026111;28;20049;-53
2022/08/25 11:36:29;;;;;;;2.50;1.95;;;;;;;;;;5025492;28;20167;-56
2022/08/25 11:39:03;;;;;;;1.60;1.50;;;;;;;;;;5026497;28;20049;-56
2022/08/25 11:41:36;;;;;;;4.80;1.98;;;;;;;;;;5026166;28;20053;-53
2022/08/25 11:44:05;;;;;;;1.77;1.58;;;;;;;;;;5025236;28;20545;-56
2022/08/25 11:46:31;;;;;;;3.45;1.98;;;;;;;;;;5026247;28;20502;-54
2022/08/25 11:49:00;;;;;;;2.15;1.95;;;;;;;;;;5026220;28;20091;-54
2022/08/25 11:51:34;;;;;;;1.73;1.60;;;;;;;;;;5025724;28;20414;-55
2022/08/25 11:54:24;;;;;;;2.03;1.83;;;;;;;;;;5025917;28;20052;-55
2022/08/25 11:56:54;;;;;;;3.08;2.00;;;;;;;;;;5014684;28;20503;-53
2022/08/25 11:59:39;;;;;;;1.70;1.60;;;;;;;;;;5008744;28;20108;-52
2022/08/25 12:02:06;;;;;;;2.47;2.05;;;;;;;;;;5025394;28;20072;-52
2022/08/25 12:04:41;;;;;;;1.80;1.60;;;;;;;;;;5025249;28;20049;-56
2022/08/25 12:07:12;;;;;;;3.78;1.90;;;;;;;;;;5025713;28;20449;-53
2022/08/25 12:09:50;;;;;;;2.20;2.00;;;;;;;;;;5026211;28;20056;-50
2022/08/25 12:12:25;;;;;;;1.65;1.55;;;;;;;;;;5025060;28;20061;-55
2022/08/25 12:14:51;;;;;;;1.50;1.40;;;;;;;;;;5025820;28;20046;-53
2022/08/25 12:17:36;;;;;;;1.45;1.35;;;;;;;;;;5025118;28;20068;-53
2022/08/25 12:20:02;;;;;;;2.78;1.90;;;;;;;;;;5028215;28;20573;-53
2022/08/25 12:22:31;;;;;;;1.60;1.50;;;;;;;;;;5029899;28;20089;-59
2022/08/25 12:25:07;;;;;;;1.83;1.60;;;;;;;;;;5029314;28;20055;-53
2022/08/25 12:27:52;;;;;;;2.70;2.00;;;;;;;;;;5029779;28;20057;-54
2022/08/25 12:30:18;;;;;;;3.97;1.92;;;;;;;;;;5029491;28;20506;-52
2022/08/25 12:32:54;;;;;;;2.58;1.90;;;;;;;;;;5028840;28;20045;-53
2022/08/25 12:35:23;;;;;;;2.30;1.80;;;;;;;;;;5029596;28;20041;-51
2022/08/25 12:38:14;;;;;;;2.13;1.90;;;;;;;;;;5029527;28;20056;-54
2022/08/25 12:40:44;;;;;;;2.25;1.90;;;;;;;;;;5018894;28;20154;-53
2022/08/25 12:43:19;;;;;;;3.85;1.88;;;;;;;;;;5029332;28;20049;-53
2022/08/25 12:45:46;;;;;;;1.60;1.50;;;;;;;;;;5028275;28;20748;-57
2022/08/25 12:48:29;;;;;;;1.83;1.73;;;;;;;;;;5029455;28;20045;-54
2022/08/25 12:51:07;;;;;;;4.30;1.92;;;;;;;;;;5029474;28;20800;-54
2022/08/25 12:53:40;;;;;;;1.80;1.60;;;;;;;;;;5028560;28;20131;-52
2022/08/25 12:56:09;;;;;;;1.65;1.48;;;;;;;;;;5028428;28;20131;-54
2022/08/25 12:58:46;;;;;;;2.85;1.95;;;;;;;;;;5029341;28;20071;-54
2022/08/25 13:01:12;;;;;;;1.95;1.83;;;;;;;;;;5028349;28;20052;-54
2022/08/25 13:03:50;;;;;;;2.95;2.13;;;;;;;;;;5028964;28;20049;-50
2022/08/25 13:06:39;;;;;;;2.70;1.70;;;;;;;;;;5028981;28;20060;-53
2022/08/25 13:09:04;;;;;;;1.85;1.48;;;;;;;;;;5028760;28;20045;-53
2022/08/25 13:11:37;;;;;;;1.63;1.52;;;;;;;;;;5028945;28;20099;-56
2022/08/25 13:14:16;;;;;;;1.60;1.50;;;;;;;;;;5027936;28;20465;-56
2022/08/25 13:16:51;;;;;;;2.05;1.95;;;;;;;;;;5028718;28;20081;-50
2022/08/25 13:19:18;;;;;;;4.35;1.90;;;;;;;;;;5028569;28;20038;-54
2022/08/25 13:21:44;;;;;;;2.13;1.85;;;;;;;;;;5027988;28;20057;-53
2022/08/25 13:24:26;;;;;;;2.13;1.80;;;;;;;;;;5028523;28;20049;-51
2022/08/25 13:26:53;;;;;;;1.73;1.63;;;;;;;;;;5028263;28;20091;-53
2022/08/25 13:29:21;;;;;;;1.92;1.67;;;;;;;;;;5027674;28;20048;-52
2022/08/25 13:31:52;;;;;;;2.00;1.80;;;;;;;;;;5027011;28;20441;-52
2022/08/25 13:34:19;;;;;;;2.80;1.45;;;;;;;;;;5039162;28;20532;-52
2022/08/25 13:39:32;;;;;;;2.38;1.48;;;;;;;;;;5048091;28;20053;-51
2022/08/25 13:41:59;;;;;;;2.53;1.90;;;;;;;;;;5047140;28;20050;-58
2022/08/25 13:44:26;;;;;;;1.52;1.42;;;;;;;;;;5048258;28;20045;-52
2022/08/25 13:47:25;;;;;;;1.88;1.77;;;;;;;;;;5047090;28;20045;-52
2022/08/25 13:49:51;;;;;;;4.75;1.33;;;;;;;;;;4987313;28;20667;-52
2022/08/25 13:52:25;;;;;;;2.47;1.60;;;;;;;;;;5036579;28;20044;-57
2022/08/25 13:54:51;;;;;;;1.55;1.45;;;;;;;;;;5035716;28;20459;-52
2022/08/25 13:57:21;;;;;;;1.73;1.60;;;;;;;;;;5040097;28;20064;-56
2022/08/25 13:59:49;;;;;;;1.42;1.33;;;;;;;;;;5027696;28;20045;-55
2022/08/25 14:02:35;;;;;;;1.60;1.50;;;;;;;;;;5034069;28;20045;-54
2022/08/25 14:05:01;;;;;;;1.58;1.48;;;;;;;;;;5037139;28;20068;-55
2022/08/25 14:07:29;;;;;;;1.60;1.10;;;;;;;;;;5041406;28;20041;-53
2022/08/25 14:10:00;;;;;;;1.40;1.30;;;;;;;;;;5033089;28;20123;-53
2022/08/25 14:12:26;;;;;;;;;;;;;;;;;;5046844;28;20045;-56
2022/08/25 14:15:03;;;;;;;1.88;1.67;;;;;;;;;;5044121;28;20011;-53
2022/08/25 14:17:30;;;;;;;1.30;1.20;;;;;;;;;;5041339;28;20040;-53
2022/08/25 14:19:56;;;;;;;1.88;1.65;;;;;;;;;;5041915;28;20056;-54
2022/08/25 14:22:22;;;;;;;1.45;1.35;;;;;;;;;;5041498;28;20081;-52
2022/08/25 14:24:48;;;;;;;1.40;1.30;;;;;;;;;;5040251;28;20051;-54
2022/08/25 14:27:14;;;;;;;3.92;1.92;;;;;;;;;;5044004;28;20106;-53
2022/08/25 14:29:40;;;;;;;3.35;1.55;;;;;;;;;;5037219;28;20041;-53
2022/08/25 14:32:06;;;;;;;1.52;1.42;;;;;;;;;;5034352;28;20049;-56
2022/08/25 14:34:37;;;;;;;1.73;1.63;;;;;;;;;;5046100;28;20052;-56
2022/08/25 14:37:15;;;;;;;2.17;1.50;;;;;;;;;;5046223;28;20049;-53
2022/08/25 14:39:41;;;;;;;2.50;1.70;;;;;;;;;;5045182;28;20054;-53
2022/08/25 14:42:07;;;;;;;1.50;1.40;;;;;;;;;;5044527;28;20048;-53
2022/08/25 14:44:33;;;;;;;2.05;1.63;;;;;;;;;;5027490;28;20045;-53
2022/08/25 14:47:00;;;;;;;1.67;1.58;;;;;;;;;;5027681;28;20095;-52
2022/08/25 14:49:32;;;;;;;1.50;1.40;;;;;;;;;;5043868;28;20051;-52
2022/08/25 14:52:06;;;;;;;1.17;1.10;;;;;;;;;;5043480;28;20048;-59
2022/08/25 14:54:32;;;;;;;1.55;1.45;;;;;;;;;;5043061;28;20132;-56
2022/08/25 14:56:58;;;;;;;1.77;1.67;;;;;;;;;;5032432;28;20136;-58
2022/08/25 14:59:24;;;;;;;1.58;1.48;;;;;;;;;;5036609;28;20059;-55
2022/08/25 15:01:51;;;;;;;1.20;1.20;;;;;;;;;;5038440;28;20875;-53
2022/08/25 15:04:19;;;;;;;5.55;1.55;;;;;;;;;;5044388;28;20494;-54
2022/08/25 15:06:46;;;;;;;1.50;1.40;;;;;;;;;;5045036;28;20048;-54
2022/08/25 15:09:15;;;;;;;1.60;1.50;;;;;;;;;;5042128;28;20080;-54
2022/08/25 15:11:45;;;;;;;2.05;1.73;;;;;;;;;;5036053;28;20037;-52
2022/08/25 15:14:14;;;;;;;1.80;1.70;;;;;;;;;;5027796;28;20136;-51
2022/08/25 15:16:41;;;;;;;1.63;1.52;;;;;;;;;;5039572;28;20510;-53